• Join FlightAware (Why Join?)
  • Login
  • US Flag 
07:34AM EST


 

Airport Tracker/Info


-or-


 

Live Flight TrackerFlight Track Log ✈ LYM752 ✈ 10-Oct-2013 ✈ KCBK - KDEN

Flight Track Log - Related Links

Times and Time Zones

All times are in EDT time to prevent confusion due to time zone crossing. See the LYM752 flight status page for this flight to view local times or setup timezone preferences in your user account.

Time Position Orientation Groundspeed Altitude Reporting Facility
EDT Latitude Longitude Course Direction KTS MPH feet Rate Location/Type
09:13PM 39.3200 -101.0653 286° West 115 132 7,400  Level Denver Center
09:14PM 39.3725 -101.0492 13° North 213 245 8,100 660 Climbing Denver Center
09:15PM 39.4258 -101.0381 North 206 237 8,800 660 Climbing Denver Center
09:16PM 39.4878 -101.0222 11° North 204 235 9,500 480 Climbing Denver Center
09:17PM 39.5444 -101.0081 11° North 210 242 9,900 180 Climbing Denver Center
09:18PM 39.4788 -101.4285 286° West  Level Estimated
09:18PM 39.6167 -101.0081 360° North 223 257 9,900  Level Denver Center
09:19PM 39.6811 -101.0133 356° North 235 270 10,000  Climbing Denver Center
09:20PM 39.7433 -101.0450 339° North 234 269 10,000 -60 Level Denver Center
09:21PM 39.7708 -101.1092 299° West 220 253 9,900 -60 Descending Denver Center
09:22PM 39.7947 -101.1731 296° West 212 244 9,900 60 Level Denver Center
09:23PM 39.8228 -101.2519 295° West 211 243 10,100 180 Climbing Denver Center
09:24PM 39.8464 -101.3239 293° West 217 250 10,300 -120 Climbing Denver Center
09:25PM 39.8753 -101.3953 298° West 212 244 9,900 -300 Descending Denver Center
09:26PM 39.8917 -101.4489 292° West 192 221 9,800 -60 Descending Denver Center
09:27PM 39.9131 -101.5064 296° West 172 198 9,800 60 Level Denver Center
09:29PM 39.9283 -101.5553 292° West 162 186 10,000  Climbing Denver Center
09:30PM 39.9439 -101.6044 292° West 156 180 9,900 -60 Descending Denver Center
09:31PM 39.9653 -101.6639 295° West 157 181 9,900  Level Denver Center
09:32PM 39.9853 -101.7164 296° West 162 186 9,900  Level Denver Center
09:33PM 40.0100 -101.7767 298° West 166 191 9,900  Level Denver Center
09:34PM 40.0286 -101.8286 295° West 167 192 9,900 -60 Level Denver Center
09:35PM 40.0494 -101.8856 296° West 162 186 9,800 -60 Descending Denver Center
09:36PM 40.0692 -101.9347 298° West 161 185 9,800  Level Denver Center
09:37PM 40.0883 -101.9861 296° West 162 186 9,900 120 Climbing Denver Center
09:38PM 40.0892 -102.0506 271° West 161 185 10,100  Climbing Denver Center
09:39PM 40.0836 -102.1031 262° West 155 178 10,000 -120 Descending Denver Center
09:40PM 40.0806 -102.1700 267° West 159 183 9,900 -60 Descending Denver Center
09:41PM 40.0778 -102.2236 266° West 158 182 9,900 60 Level Denver Center
09:42PM 40.0742 -102.2844 266° West 155 178 10,100  Climbing Denver Center
09:43PM 40.0694 -102.3350 263° West 151 174 9,900 -60 Descending Denver Center
09:44PM 40.0653 -102.3897 264° West 147 169 10,000  Climbing Denver Center
09:45PM 40.0617 -102.4386 265° West 145 167 9,900 -60 Descending Denver Center
09:46PM 40.0542 -102.4869 259° West 141 162 9,900  Level Denver Center
09:47PM 40.0497 -102.5442 264° West 140 161 9,900  Level Denver Center
09:48PM 40.0456 -102.5911 263° West 139 160 10,000 60 Climbing Denver Center
09:49PM 40.0392 -102.6478 262° West 140 161 10,100  Climbing Denver Center
09:50PM 40.0375 -102.7014 268° West 143 165 10,000 -60 Descending Denver Center
09:51PM 40.0344 -102.7544 266° West 145 167 10,000  Level Denver Center
09:52PM 40.0269 -102.8072 260° West 147 169 10,000  Level Denver Center
09:53PM 40.0197 -102.8600 260° West 148 170 10,000  Level Denver Center
09:54PM 40.0156 -102.9131 264° West 147 169 10,000  Level Denver Center
09:55PM 40.0111 -102.9764 265° West 146 168 10,000  Level Denver Center
09:56PM 40.0083 -103.0278 266° West 146 168 10,000  Level Denver Center
09:57PM 40.0031 -103.0808 263° West 146 168 10,000  Level Denver Center
09:58PM 39.9986 -103.1317 264° West 145 167 10,000 -60 Level Denver Center
09:59PM 39.9936 -103.1850 263° West 146 168 9,900  Descending Denver Center
10:00PM 39.9889 -103.2386 263° West 148 170 10,100  Climbing Denver Center
10:01PM 39.9833 -103.3072 264° West 154 177 10,000 -60 Descending Denver Center
10:03PM 39.9794 -103.3608 265° West 153 176 10,000  Level Denver Center
10:04PM 39.9742 -103.4150 263° West 151 174 10,000  Level Denver Center
10:05PM 39.9714 -103.4708 266° West 152 175 10,000  Level Denver Center
10:06PM 39.9672 -103.5283 265° West 157 181 10,000 -60 Level Denver Center
10:07PM 39.9611 -103.5836 262° West 156 180 9,900  Descending Denver Center
10:08PM 39.9558 -103.6394 263° West 156 180 10,000  Climbing Denver Center
10:09PM 39.9458 -103.7050 259° West 155 178 10,000  Level Denver Center
10:10PM 39.9328 -103.7619 253° West 166 191 10,000  Level Denver Center
10:11PM 39.9181 -103.8258 253° West 172 198 10,000  Level Denver Center
10:12PM 39.9050 -103.8856 254° West 171 197 10,000 -240 Level Denver Center
10:13PM 39.8925 -103.9519 256° West 175 201 9,600 -480 Descending Denver Center
10:14PM 39.8783 -104.0186 255° West 191 220 9,100 -180 Descending Denver Center
10:15PM 39.8708 -104.0869 262° West 192 221 9,300 -60 Climbing Denver Center
10:16PM 39.8722 -104.1556 272° West 179 206 9,000 -300 Descending Denver Center
10:17PM 39.8761 -104.2219 274° West 183 211 8,800 -240 Descending Denver Center
10:18PM 39.8742 -104.2911 268° West 190 219 8,600 -300 Descending Denver Center
10:19PM 39.8767 -104.3583 273° West 176 203 8,300 -240 Descending Denver Center
10:20PM 39.8753 -104.4208 268° West 174 200 8,200 -360 Descending Denver Center
10:21PM 39.8758 -104.4881 271° West 168 193 7,600 -720 Descending Denver Center
10:22PM 39.8764 -104.5411 271° West 151 174 6,800 -780 Descending Denver Center
10:23PM 39.8767 -104.5883 270° West 135 155 6,000 -780 Descending Denver Center
10:24PM 39.8775 -104.6336 271° West 129 148 5,300 -720 Descending Denver Center
10:26PM 39.8500 -104.6667 263° West  Level FlightAware Approximate
10:33PM 39.8617 -104.6732 263° West  Level Estimated
10:34PM 39.8617 -104.6732 263° West  Level Estimated
10:35PM 39.8617 -104.6732 263° West  Level Estimated